Time;durP1;ratioP1;P1;durP2;ratioP2;P2;SDS_P1;SDS_P2;PMS_P1;PMS_P2;Temp;Humidity;BMP_temperature;BMP_pressure;BME280_temperature;BME280_humidity;BME280_pressure;Samples;Min_cycle;Max_cycle;Signal;HPM_P1;HPM_P2
2022/04/24 00:01:51;;;;;;;13.83;8.53;;;8.90;99.90;;;;;;5046906;28;20384;-35
2022/04/24 00:04:17;;;;;;;10.83;7.93;;;8.90;99.90;;;;;;5041805;28;20408;-35
2022/04/24 00:06:46;;;;;;;10.27;7.47;;;8.80;99.90;;;;;;5032848;28;20065;-35
2022/04/24 00:09:13;;;;;;;11.07;7.63;;;8.80;99.90;;;;;;5045989;28;20128;-35
2022/04/24 00:11:39;;;;;;;13.17;8.10;;;8.80;99.90;;;;;;5046663;28;20044;-35
2022/04/24 00:14:09;;;;;;;13.57;8.70;;;8.70;99.90;;;;;;5044129;28;20762;-35
2022/04/24 00:16:36;;;;;;;8.43;7.50;;;8.70;99.90;;;;;;5032882;28;20412;-35
2022/04/24 00:19:02;;;;;;;9.30;7.27;;;8.70;99.90;;;;;;5044332;28;20045;-35
2022/04/24 00:21:28;;;;;;;9.97;7.43;;;8.60;99.90;;;;;;5043552;28;20066;-35
2022/04/24 00:23:53;;;;;;;9.80;7.53;;;8.60;99.90;;;;;;5044639;28;20048;-35
2022/04/24 00:26:19;;;;;;;8.80;7.73;;;8.60;99.90;;;;;;5034228;28;20128;-35
2022/04/24 00:28:44;;;;;;;10.53;7.40;;;8.60;99.90;;;;;;5040922;28;20084;-35
2022/04/24 00:31:10;;;;;;;11.00;7.97;;;8.50;99.90;;;;;;5044714;28;20124;-35
2022/04/24 00:33:36;;;;;;;11.27;7.80;;;8.50;99.90;;;;;;5042471;28;20041;-35
2022/04/24 00:36:01;;;;;;;10.80;7.93;;;8.50;99.90;;;;;;5044678;28;20040;-35
2022/04/24 00:38:27;;;;;;;9.07;8.13;;;8.40;99.90;;;;;;5031078;28;20037;-35
2022/04/24 00:40:54;;;;;;;13.83;7.77;;;8.40;99.90;;;;;;5046604;28;20492;-35
2022/04/24 00:43:19;;;;;;;10.70;7.73;;;8.50;99.90;;;;;;5043583;28;20048;-35
2022/04/24 00:45:45;;;;;;;9.40;7.83;;;8.30;99.90;;;;;;5028356;28;20460;-35
2022/04/24 00:48:11;;;;;;;12.10;7.63;;;8.30;99.90;;;;;;5029890;28;20068;-35
2022/04/24 00:50:39;;;;;;;12.40;7.80;;;8.30;99.90;;;;;;5046234;28;20041;-35
2022/04/24 00:53:06;;;;;;;10.33;7.60;;;8.30;99.90;;;;;;5044683;28;20076;-35
2022/04/24 00:55:32;;;;;;;11.27;8.20;;;8.30;99.90;;;;;;5046511;28;20048;-35
2022/04/24 00:57:57;;;;;;;10.63;7.63;;;8.20;99.90;;;;;;5029514;28;20319;-35
2022/04/24 01:00:23;;;;;;;11.13;7.83;;;8.20;99.90;;;;;;5048216;28;20289;-35
2022/04/24 01:02:49;;;;;;;11.10;7.90;;;8.20;99.90;;;;;;5040964;28;20053;-35
2022/04/24 01:05:17;;;;;;;9.80;8.27;;;8.20;99.90;;;;;;5043746;28;20091;-35
2022/04/24 01:07:44;;;;;;;11.23;7.63;;;8.10;99.90;;;;;;5028023;28;20057;-35
2022/04/24 01:10:09;;;;;;;11.07;8.43;;;8.10;99.90;;;;;;5045799;28;20316;-35
2022/04/24 01:12:35;;;;;;;11.47;7.90;;;8.10;99.90;;;;;;5044856;28;20435;-35
2022/04/24 01:15:01;;;;;;;10.83;8.33;;;7.90;99.90;;;;;;5045513;28;20049;-35
2022/04/24 01:17:27;;;;;;;10.00;7.90;;;8.00;99.90;;;;;;5029250;28;20044;-35
2022/04/24 01:19:53;;;;;;;9.93;8.40;;;8.00;99.90;;;;;;5045830;28;20637;-35
2022/04/24 01:22:19;;;;;;;9.30;8.13;;;8.00;99.90;;;;;;5043173;28;20068;-35
2022/04/24 01:24:44;;;;;;;9.30;8.30;;;7.90;99.90;;;;;;5044288;28;20045;-35
2022/04/24 01:27:10;;;;;;;10.50;8.40;;;7.90;99.90;;;;;;5027893;28;20132;-35
2022/04/24 01:29:36;;;;;;;12.57;8.17;;;7.90;99.90;;;;;;5043382;28;20583;-35
2022/04/24 01:32:01;;;;;;;10.87;8.43;;;7.90;99.90;;;;;;5045180;28;20056;-35
2022/04/24 01:34:27;;;;;;;9.93;7.97;;;7.80;99.90;;;;;;5044726;28;20565;-35
2022/04/24 01:36:53;;;;;;;9.83;8.30;;;7.80;99.90;;;;;;5029583;28;20520;-35
2022/04/24 01:39:19;;;;;;;12.27;8.67;;;7.80;99.90;;;;;;5045548;28;20052;-35
2022/04/24 01:41:44;;;;;;;10.53;8.90;;;7.70;99.90;;;;;;5043616;28;20106;-35
2022/04/24 01:44:10;;;;;;;9.57;7.97;;;7.70;99.90;;;;;;5043731;28;20288;-35
2022/04/24 01:46:36;;;;;;;13.23;8.97;;;7.70;99.90;;;;;;5031504;28;20766;-35
2022/04/24 01:49:02;;;;;;;10.37;8.50;;;7.70;99.90;;;;;;5040452;28;20118;-35
2022/04/24 01:51:28;;;;;;;12.80;8.37;;;7.70;99.90;;;;;;5043943;28;20129;-35
2022/04/24 01:53:53;;;;;;;11.10;8.23;;;7.70;99.90;;;;;;5043860;28;20496;-35
2022/04/24 01:56:19;;;;;;;10.13;8.80;;;7.70;99.90;;;;;;5034586;28;20477;-35
2022/04/24 01:58:45;;;;;;;11.50;8.40;;;7.70;99.90;;;;;;5039301;28;20059;-35
2022/04/24 02:01:11;;;;;;;11.40;9.17;;;7.60;99.90;;;;;;5046965;28;20447;-35
2022/04/24 02:03:37;;;;;;;12.90;9.00;;;7.60;99.90;;;;;;5037456;28;20077;-35
2022/04/24 02:06:04;;;;;;;12.33;8.77;;;7.60;99.90;;;;;;5045098;28;20037;-35
2022/04/24 02:08:31;;;;;;;12.03;8.60;;;7.60;99.90;;;;;;5027857;28;20045;-35
2022/04/24 02:10:58;;;;;;;12.30;9.07;;;7.50;99.90;;;;;;5044910;28;20044;-35
2022/04/24 02:13:24;;;;;;;10.53;8.33;;;7.50;99.90;;;;;;5043353;28;20052;-35
2022/04/24 02:15:50;;;;;;;11.10;7.97;;;7.40;99.90;;;;;;5044195;28;20045;-35
2022/04/24 02:18:16;;;;;;;11.37;9.20;;;7.50;99.90;;;;;;5028300;28;20235;-34
2022/04/24 02:20:42;;;;;;;12.30;9.07;;;7.50;99.90;;;;;;5026095;28;20434;-35
2022/04/24 02:23:08;;;;;;;12.03;8.63;;;7.40;99.90;;;;;;5040392;28;20040;-35
2022/04/24 02:25:34;;;;;;;12.03;8.90;;;7.40;99.90;;;;;;5025058;28;20049;-35
2022/04/24 02:28:00;;;;;;;10.97;9.27;;;7.50;99.90;;;;;;5026602;28;20063;-35
2022/04/24 02:30:29;;;;;;;10.60;8.47;;;7.40;99.90;;;;;;5044346;28;20048;-35
2022/04/24 02:32:59;;;;;;;12.27;9.23;;;7.40;99.90;;;;;;5043057;28;20049;-34
2022/04/24 02:35:27;;;;;;;10.68;9.25;;;7.40;99.90;;;;;;5042961;28;20686;-35
2022/04/24 02:37:53;;;;;;;11.30;8.67;;;7.30;99.90;;;;;;5028790;28;20056;-35
2022/04/24 02:40:22;;;;;;;15.03;8.67;;;7.40;99.90;;;;;;5044299;28;20037;-35
2022/04/24 02:42:51;;;;;;;13.93;8.63;;;7.30;99.90;;;;;;5042553;28;20052;-35
2022/04/24 02:45:18;;;;;;;11.97;8.67;;;7.30;99.90;;;;;;5044158;28;20068;-35
2022/04/24 02:47:44;;;;;;;13.13;9.00;;;7.30;99.90;;;;;;5028300;28;20156;-35
2022/04/24 02:50:10;;;;;;;11.80;8.40;;;7.20;99.90;;;;;;5043887;28;20052;-35
2022/04/24 02:53:05;;;;;;;11.13;8.77;;;7.20;99.90;;;;;;5043250;28;20416;-35
2022/04/24 02:55:31;;;;;;;13.20;9.20;;;7.20;99.90;;;;;;5038495;28;20053;-35
2022/04/24 02:57:57;;;;;;;14.00;9.17;;;7.20;99.90;;;;;;5025414;28;20361;-35
2022/04/24 03:00:24;;;;;;;13.80;8.80;;;7.20;99.90;;;;;;5046255;28;20055;-35
2022/04/24 03:02:51;;;;;;;12.70;8.90;;;7.10;99.90;;;;;;5039022;28;20033;-35
2022/04/24 03:05:19;;;;;;;12.30;8.97;;;7.10;99.90;;;;;;5040981;28;20052;-35
2022/04/24 03:07:45;;;;;;;11.77;8.63;;;7.10;99.90;;;;;;5026162;28;20047;-35
2022/04/24 03:10:12;;;;;;;11.70;8.93;;;7.10;99.90;;;;;;5043363;28;20466;-35
2022/04/24 03:12:39;;;;;;;10.63;8.53;;;7.10;99.90;;;;;;5058546;28;20053;-35
2022/04/24 03:15:06;;;;;;;12.23;8.47;;;7.10;99.90;;;;;;5042132;28;20234;-34
2022/04/24 03:17:32;;;;;;;12.53;8.63;;;7.00;99.90;;;;;;5026499;28;20102;-35
2022/04/24 03:19:59;;;;;;;11.70;8.60;;;7.00;99.90;;;;;;5043203;28;20041;-35
2022/04/24 03:22:26;;;;;;;13.67;8.63;;;7.00;99.90;;;;;;5057694;28;20372;-35
2022/04/24 03:24:51;;;;;;;11.67;8.80;;;7.00;99.90;;;;;;5042037;28;20044;-35
2022/04/24 03:27:17;;;;;;;11.13;9.17;;;7.00;99.90;;;;;;5025905;28;20041;-35
2022/04/24 03:29:43;;;;;;;12.93;9.27;;;7.00;99.90;;;;;;5041732;28;20057;-35
2022/04/24 03:32:09;;;;;;;10.43;8.57;;;7.00;99.90;;;;;;5042495;28;20044;-35
2022/04/24 03:34:37;;;;;;;13.00;8.80;;;7.00;99.90;;;;;;5043294;28;20834;-35
2022/04/24 03:37:03;;;;;;;13.67;9.13;;;7.00;99.90;;;;;;5027021;28;20037;-35
2022/04/24 03:39:29;;;;;;;12.93;9.27;;;7.00;99.90;;;;;;5040639;28;20128;-35
2022/04/24 03:41:55;;;;;;;12.87;8.87;;;7.00;99.90;;;;;;5043618;28;20128;-34
2022/04/24 03:44:20;;;;;;;11.73;8.90;;;7.10;99.90;;;;;;5042122;28;20407;-35
2022/04/24 03:46:46;;;;;;;12.47;9.00;;;7.00;99.90;;;;;;5028366;28;20048;-35
2022/04/24 03:49:12;;;;;;;11.83;8.90;;;7.00;99.90;;;;;;5040974;28;20439;-35
2022/04/24 03:51:37;;;;;;;12.17;8.97;;;7.10;99.90;;;;;;5042007;28;20496;-35
2022/04/24 03:54:03;;;;;;;11.07;8.30;;;7.10;99.90;;;;;;5040906;28;20458;-35
2022/04/24 03:56:31;;;;;;;12.40;8.93;;;7.00;99.90;;;;;;5031609;28;20518;-35
2022/04/24 03:58:58;;;;;;;14.23;8.53;;;7.10;99.90;;;;;;5041007;28;20052;-35
2022/04/24 04:01:24;;;;;;;11.67;8.60;;;7.00;99.90;;;;;;5043419;28;20056;-35
2022/04/24 04:03:53;;;;;;;10.63;8.03;;;7.00;99.90;;;;;;5037200;28;20056;-35
2022/04/24 04:06:19;;;;;;;11.97;7.80;;;7.00;99.90;;;;;;5032895;28;20095;-35
2022/04/24 04:08:45;;;;;;;12.47;8.10;;;6.90;99.90;;;;;;5038708;28;20044;-35
2022/04/24 04:11:12;;;;;;;13.17;8.70;;;6.90;99.90;;;;;;5046593;28;20037;-35
2022/04/24 04:13:38;;;;;;;18.67;8.53;;;6.90;99.90;;;;;;5046457;28;20041;-35
2022/04/24 04:16:04;;;;;;;11.37;8.20;;;6.90;99.90;;;;;;5046651;28;21249;-35
2022/04/24 04:18:29;;;;;;;10.40;7.97;;;6.90;99.90;;;;;;5028077;28;20110;-35
2022/04/24 04:20:55;;;;;;;12.03;8.33;;;6.90;99.90;;;;;;5045826;28;20450;-35
2022/04/24 04:23:21;;;;;;;14.13;8.27;;;6.90;99.90;;;;;;5046001;28;20400;-35
2022/04/24 04:25:46;;;;;;;9.83;8.20;;;6.90;99.90;;;;;;5041709;28;20148;-35
2022/04/24 04:28:12;;;;;;;13.90;8.80;;;6.80;99.90;;;;;;5029402;28;20052;-35
2022/04/24 04:30:38;;;;;;;13.10;8.30;;;6.80;99.90;;;;;;5046201;28;20052;-35
2022/04/24 04:33:03;;;;;;;14.90;8.83;;;6.80;99.90;;;;;;5044215;28;20037;-35
2022/04/24 04:35:29;;;;;;;14.57;8.57;;;6.80;99.90;;;;;;5046256;28;20052;-35
2022/04/24 04:37:55;;;;;;;14.87;8.63;;;6.70;99.90;;;;;;5029828;28;20048;-35
2022/04/24 04:40:20;;;;;;;13.70;9.27;;;6.80;99.90;;;;;;5046139;28;20064;-35
2022/04/24 04:42:48;;;;;;;11.40;8.70;;;6.80;99.90;;;;;;5045382;28;20041;-35
2022/04/24 04:45:17;;;;;;;13.07;9.20;;;6.80;99.90;;;;;;5045938;28;20045;-35
2022/04/24 04:47:44;;;;;;;15.47;9.00;;;6.80;99.90;;;;;;5030080;28;20060;-35
2022/04/24 04:50:10;;;;;;;10.70;8.77;;;6.80;99.90;;;;;;5045773;28;20121;-35
2022/04/24 04:52:36;;;;;;;12.60;8.90;;;6.80;99.90;;;;;;5045561;28;20140;-35
2022/04/24 04:55:03;;;;;;;14.40;9.03;;;6.80;99.90;;;;;;5045648;28;20131;-35
2022/04/24 04:57:29;;;;;;;12.07;9.47;;;6.80;99.90;;;;;;5028422;28;20094;-35
2022/04/24 04:59:55;;;;;;;19.03;9.53;;;6.80;99.90;;;;;;5046199;28;20041;-35
2022/04/24 05:02:21;;;;;;;14.27;9.70;;;6.80;99.90;;;;;;5042597;28;20049;-35
2022/04/24 05:04:47;;;;;;;17.33;9.60;;;6.80;99.90;;;;;;5042516;28;20400;-35
2022/04/24 05:07:13;;;;;;;12.97;9.63;;;6.80;99.90;;;;;;5029699;28;20052;-35
2022/04/24 05:09:39;;;;;;;14.30;9.77;;;6.90;99.90;;;;;;5045695;28;20037;-35
2022/04/24 05:12:06;;;;;;;13.30;9.20;;;6.90;99.90;;;;;;5043992;28;20477;-35
2022/04/24 05:14:32;;;;;;;13.33;9.33;;;6.90;99.90;;;;;;5045633;28;20049;-35
2022/04/24 05:16:58;;;;;;;14.43;10.10;;;6.90;99.90;;;;;;5030423;28;20106;-35
2022/04/24 05:19:25;;;;;;;16.67;11.07;;;7.00;99.90;;;;;;5043725;28;20049;-35
2022/04/24 05:21:52;;;;;;;18.87;10.20;;;7.00;99.90;;;;;;5044807;28;20404;-35
2022/04/24 05:24:18;;;;;;;15.47;9.77;;;7.00;99.90;;;;;;5044638;28;20094;-35
2022/04/24 05:26:44;;;;;;;15.00;10.33;;;7.10;99.90;;;;;;5029668;28;20442;-35
2022/04/24 05:29:10;;;;;;;14.63;10.10;;;7.20;99.90;;;;;;5044247;28;20337;-35
2022/04/24 05:31:36;;;;;;;13.73;10.83;;;7.20;99.90;;;;;;5043815;28;20404;-35
2022/04/24 05:34:02;;;;;;;15.90;10.33;;;7.30;99.90;;;;;;5044598;28;20045;-35
2022/04/24 05:36:27;;;;;;;14.33;10.60;;;7.40;99.90;;;;;;5032810;28;20458;-35
2022/04/24 05:38:53;;;;;;;15.17;10.10;;;7.50;99.90;;;;;;5040904;28;20045;-35
2022/04/24 05:41:19;;;;;;;16.23;10.87;;;7.50;99.90;;;;;;5044459;28;20318;-35
2022/04/24 05:43:44;;;;;;;15.20;10.33;;;7.70;99.90;;;;;;5043911;28;20440;-35
2022/04/24 05:46:10;;;;;;;18.40;11.17;;;7.70;99.90;;;;;;5038115;28;20130;-35
2022/04/24 05:48:36;;;;;;;16.50;10.67;;;7.80;99.90;;;;;;5035955;28;20045;-35
2022/04/24 05:51:01;;;;;;;14.87;10.10;;;7.90;99.90;;;;;;5044417;28;20109;-35
2022/04/24 05:53:27;;;;;;;16.03;10.30;;;8.00;99.90;;;;;;5044193;28;20083;-35
2022/04/24 05:55:53;;;;;;;17.47;11.00;;;8.10;99.90;;;;;;5044964;28;20051;-35
2022/04/24 05:58:18;;;;;;;14.60;10.57;;;8.20;99.90;;;;;;5028705;28;20041;-35
2022/04/24 06:00:44;;;;;;;15.67;10.17;;;8.30;99.90;;;;;;5045095;28;20444;-35
2022/04/24 06:03:10;;;;;;;15.50;10.17;;;8.40;99.90;;;;;;5039812;28;20045;-35
2022/04/24 06:05:35;;;;;;;16.47;10.00;;;8.60;99.90;;;;;;5040000;28;20480;-35
2022/04/24 06:08:01;;;;;;;14.00;9.07;;;8.60;99.90;;;;;;5004638;28;20083;-35
2022/04/24 06:10:27;;;;;;;14.23;8.63;;;8.80;99.90;;;;;;5042700;28;20428;-35
2022/04/24 06:12:56;;;;;;;14.23;9.07;;;8.90;99.90;;;;;;5042551;28;20057;-35
2022/04/24 06:15:24;;;;;;;14.43;8.17;;;8.90;99.90;;;;;;5043471;28;20045;-35
2022/04/24 06:17:52;;;;;;;12.17;8.40;;;9.00;99.90;;;;;;5027297;28;20076;-35
2022/04/24 06:20:19;;;;;;;12.50;7.43;;;9.10;99.90;;;;;;5043620;28;20090;-35
2022/04/24 06:22:53;;;;;;;11.20;6.60;;;9.20;99.90;;;;;;5042424;28;20118;-35
2022/04/24 06:25:21;;;;;;;14.83;7.53;;;9.30;99.90;;;;;;5043861;28;20135;-35
2022/04/24 06:27:48;;;;;;;11.70;6.57;;;9.40;99.90;;;;;;5027048;28;20545;-36
2022/04/24 06:30:15;;;;;;;9.37;6.70;;;9.50;99.90;;;;;;5043561;28;20514;-35
2022/04/24 06:32:42;;;;;;;10.20;5.73;;;9.50;99.90;;;;;;5040454;28;20041;-35
2022/04/24 06:35:10;;;;;;;8.07;5.30;;;9.70;99.90;;;;;;5043080;28;20032;-35
2022/04/24 06:37:40;;;;;;;8.60;5.37;;;9.70;99.90;;;;;;5027647;28;20103;-36
2022/04/24 06:40:08;;;;;;;9.83;5.40;;;9.80;99.90;;;;;;5042446;28;20136;-35
2022/04/24 06:42:48;;;;;;;11.43;5.07;;;9.90;99.90;;;;;;5042101;28;20037;-35
2022/04/24 06:45:14;;;;;;;7.63;4.50;;;10.00;99.90;;;;;;5043395;28;20044;-35
2022/04/24 06:47:39;;;;;;;8.30;4.33;;;10.00;99.90;;;;;;5027216;28;20045;-36
2022/04/24 06:50:06;;;;;;;8.17;4.07;;;10.20;99.90;;;;;;5043005;28;20049;-35
2022/04/24 06:52:31;;;;;;;8.33;3.53;;;10.20;99.90;;;;;;5041024;28;20490;-35
2022/04/24 06:55:00;;;;;;;7.00;3.80;;;10.20;99.90;;;;;;5043463;28;20088;-35
2022/04/24 06:57:26;;;;;;;10.63;3.57;;;10.40;99.90;;;;;;5025934;28;20052;-36
2022/04/24 06:59:52;;;;;;;5.40;3.00;;;10.40;99.90;;;;;;5042917;28;20045;-35
2022/04/24 07:02:17;;;;;;;7.27;3.40;;;10.50;99.90;;;;;;5042253;28;20471;-35
2022/04/24 07:04:43;;;;;;;6.03;2.80;;;10.50;99.90;;;;;;5042845;28;20057;-35
2022/04/24 07:07:09;;;;;;;6.00;2.83;;;10.60;99.90;;;;;;5026361;28;20037;-36
2022/04/24 07:09:34;;;;;;;5.55;3.17;;;10.70;99.90;;;;;;5042921;28;20076;-35
2022/04/24 07:12:00;;;;;;;6.38;2.83;;;10.80;99.90;;;;;;5042955;28;20048;-35
2022/04/24 07:14:26;;;;;;;5.25;2.63;;;10.80;99.90;;;;;;5042349;28;20045;-35
2022/04/24 07:16:51;;;;;;;4.22;3.10;;;10.90;99.90;;;;;;5027439;28;20088;-36
2022/04/24 07:19:17;;;;;;;6.07;2.80;;;10.90;99.90;;;;;;5040111;28;20088;-35
2022/04/24 07:21:43;;;;;;;6.32;2.85;;;11.00;99.90;;;;;;5042791;28;20057;-35
2022/04/24 07:24:08;;;;;;;7.35;2.72;;;11.00;99.90;;;;;;5041850;28;20127;-35
2022/04/24 07:26:34;;;;;;;7.75;2.70;;;11.10;99.90;;;;;;5028892;28;20033;-36
2022/04/24 07:29:00;;;;;;;3.47;2.58;;;11.10;99.90;;;;;;5040221;28;20041;-36
2022/04/24 07:31:25;;;;;;;6.60;2.78;;;11.10;99.90;;;;;;5043390;28;20369;-36
2022/04/24 07:33:52;;;;;;;6.15;2.63;;;11.20;99.90;;;;;;5037912;28;20137;-35
2022/04/24 07:36:18;;;;;;;8.70;2.70;;;11.20;99.90;;;;;;5031153;28;20047;-36
2022/04/24 07:38:44;;;;;;;3.88;2.55;;;11.30;99.90;;;;;;5037746;28;20045;-36
2022/04/24 07:41:10;;;;;;;4.90;2.72;;;11.20;99.90;;;;;;5043030;28;20041;-35
2022/04/24 07:43:36;;;;;;;5.05;2.58;;;11.30;99.90;;;;;;5043723;28;20134;-36
2022/04/24 07:46:02;;;;;;;6.03;2.90;;;11.30;99.90;;;;;;5046594;28;20435;-36
2022/04/24 07:48:28;;;;;;;4.72;3.05;;;11.40;99.90;;;;;;5029980;28;20107;-36
2022/04/24 07:50:53;;;;;;;4.88;2.97;;;11.50;99.90;;;;;;5045033;28;20135;-36
2022/04/24 07:53:20;;;;;;;3.70;2.70;;;11.50;99.90;;;;;;5045400;28;20037;-35
2022/04/24 07:55:47;;;;;;;6.95;3.25;;;11.50;99.90;;;;;;5046220;28;20045;-36
2022/04/24 07:58:15;;;;;;;4.90;2.90;;;11.50;99.90;;;;;;5044457;28;20523;-36
2022/04/24 08:00:41;;;;;;;7.70;3.30;;;11.50;99.90;;;;;;5047094;28;20052;-36
2022/04/24 08:03:09;;;;;;;5.22;3.38;;;11.50;99.90;;;;;;5043351;28;20094;-36
2022/04/24 08:05:43;;;;;;;5.15;3.05;;;11.50;99.90;;;;;;5045872;28;20049;-35
2022/04/24 08:08:20;;;;;;;6.18;2.85;;;11.50;99.90;;;;;;5029252;28;20044;-36
2022/04/24 08:10:48;;;;;;;6.68;3.25;;;11.60;99.90;;;;;;5044191;28;20051;-36
2022/04/24 08:13:15;;;;;;;11.60;3.15;;;11.60;99.90;;;;;;5043477;28;20067;-36
2022/04/24 08:15:42;;;;;;;7.60;3.30;;;11.60;99.90;;;;;;5045627;28;20033;-36
2022/04/24 08:18:09;;;;;;;6.05;3.10;;;11.60;99.90;;;;;;5028896;28;20231;-36
2022/04/24 08:20:35;;;;;;;5.20;3.28;;;11.70;99.90;;;;;;5044365;28;20040;-36
2022/04/24 08:23:01;;;;;;;7.03;3.08;;;11.70;99.90;;;;;;5045308;28;20041;-36
2022/04/24 08:25:28;;;;;;;4.57;3.00;;;11.70;99.90;;;;;;5044483;28;20044;-36
2022/04/24 08:27:55;;;;;;;5.70;3.33;;;11.70;99.90;;;;;;5027833;28;20041;-36
2022/04/24 08:30:23;;;;;;;5.85;3.65;;;11.80;99.90;;;;;;5045653;28;20049;-35
2022/04/24 08:32:50;;;;;;;7.60;3.10;;;11.80;99.90;;;;;;5044326;28;20044;-36
2022/04/24 08:35:19;;;;;;;7.00;3.35;;;11.90;99.90;;;;;;5045409;28;20134;-35
2022/04/24 08:37:46;;;;;;;4.53;3.20;;;11.80;99.90;;;;;;5031155;28;20574;-36
2022/04/24 08:40:13;;;;;;;6.40;3.53;;;11.90;99.90;;;;;;5045683;28;20041;-36
2022/04/24 08:42:40;;;;;;;6.82;3.60;;;11.90;99.90;;;;;;5044858;28;20041;-36
2022/04/24 08:45:10;;;;;;;8.25;3.15;;;12.00;99.90;;;;;;5058731;28;20072;-36
2022/04/24 08:47:36;;;;;;;5.47;3.58;;;12.00;99.90;;;;;;5027252;28;20068;-35
2022/04/24 08:50:02;;;;;;;5.38;3.70;;;12.10;99.90;;;;;;5042545;28;20048;-35
2022/04/24 08:52:29;;;;;;;7.30;3.20;;;12.10;99.90;;;;;;5042801;28;20053;-36
2022/04/24 08:54:57;;;;;;;6.03;3.20;;;12.10;99.90;;;;;;5025345;28;20053;-36
2022/04/24 08:57:26;;;;;;;5.80;3.15;;;12.10;99.90;;;;;;5029560;28;20133;-36
2022/04/24 08:59:55;;;;;;;6.45;3.53;;;12.20;99.90;;;;;;5044883;28;20059;-36
2022/04/24 09:02:22;;;;;;;5.60;3.00;;;12.30;99.90;;;;;;5041207;28;20432;-36
2022/04/24 09:04:48;;;;;;;5.55;3.30;;;12.30;99.90;;;;;;5044455;28;20048;-36
2022/04/24 09:07:17;;;;;;;8.90;3.72;;;12.30;99.90;;;;;;5029195;28;20100;-36
2022/04/24 09:09:53;;;;;;;8.10;3.22;;;12.30;99.90;;;;;;5043506;28;20059;-36
2022/04/24 09:12:24;;;;;;;4.53;3.08;;;12.40;99.90;;;;;;5044410;28;20041;-36
2022/04/24 09:14:55;;;;;;;7.15;3.40;;;12.40;99.90;;;;;;5044553;28;20514;-36
2022/04/24 09:17:32;;;;;;;5.82;3.03;;;12.40;99.90;;;;;;5027359;28;20032;-36
2022/04/24 09:19:59;;;;;;;5.90;3.10;;;12.40;99.90;;;;;;5043097;28;20049;-36
2022/04/24 09:22:25;;;;;;;7.05;3.67;;;12.50;99.90;;;;;;5042144;28;20045;-36
2022/04/24 09:24:54;;;;;;;6.03;3.33;;;12.50;99.90;;;;;;5042981;28;20187;-36
2022/04/24 09:27:27;;;;;;;5.65;3.20;;;12.50;99.90;;;;;;5025710;28;20488;-36
2022/04/24 09:29:57;;;;;;;4.72;3.03;;;12.50;99.90;;;;;;5042851;28;20530;-36
2022/04/24 09:32:25;;;;;;;7.85;3.35;;;12.60;99.90;;;;;;5041416;28;20063;-36
2022/04/24 09:34:51;;;;;;;6.90;2.90;;;12.60;99.90;;;;;;5042635;28;20425;-36
2022/04/24 09:37:18;;;;;;;5.95;2.80;;;12.70;99.90;;;;;;5042641;28;20534;-36
2022/04/24 09:39:44;;;;;;;5.85;2.80;;;12.70;99.90;;;;;;5040938;28;20048;-36
2022/04/24 09:42:15;;;;;;;6.25;2.85;;;12.80;99.90;;;;;;5041842;28;20087;-36
2022/04/24 09:44:50;;;;;;;7.20;2.70;;;12.80;99.90;;;;;;5042910;28;20049;-36
2022/04/24 09:47:25;;;;;;;4.10;2.63;;;12.80;99.90;;;;;;5029002;28;20383;-36
2022/04/24 09:49:51;;;;;;;5.30;2.67;;;12.90;99.90;;;;;;5044716;28;20552;-36
2022/04/24 09:52:25;;;;;;;5.18;2.47;;;12.90;99.90;;;;;;5043345;28;20044;-36
2022/04/24 09:54:53;;;;;;;7.65;3.15;;;13.00;99.90;;;;;;5043141;28;20380;-36
2022/04/24 09:57:22;;;;;;;5.85;3.05;;;13.00;99.90;;;;;;5029208;28;20044;-36
2022/04/24 09:59:50;;;;;;;8.50;3.70;;;13.00;99.90;;;;;;5043865;28;20036;-36
2022/04/24 10:02:17;;;;;;;9.38;3.55;;;13.00;99.90;;;;;;5038212;28;20033;-36
2022/04/24 10:04:45;;;;;;;6.00;3.25;;;13.10;99.90;;;;;;5041719;28;20052;-36
2022/04/24 10:07:13;;;;;;;6.95;3.50;;;13.10;99.90;;;;;;5028469;28;20385;-36
2022/04/24 10:09:42;;;;;;;6.00;3.28;;;13.20;99.90;;;;;;5044383;28;20404;-36
2022/04/24 10:12:18;;;;;;;4.75;3.08;;;13.20;99.90;;;;;;5059242;28;20140;-36
2022/04/24 10:14:51;;;;;;;5.57;2.80;;;13.20;99.90;;;;;;5044657;28;20105;-36
2022/04/24 10:17:33;;;;;;;4.43;3.08;;;13.20;99.90;;;;;;5028898;28;20048;-36
2022/04/24 10:20:02;;;;;;;7.75;3.03;;;13.30;99.90;;;;;;5040867;28;20040;-36
2022/04/24 10:22:35;;;;;;;4.80;2.92;;;13.30;99.90;;;;;;5043577;28;20465;-36
2022/04/24 10:25:03;;;;;;;4.80;2.78;;;13.40;99.90;;;;;;5042020;28;20369;-36
2022/04/24 10:27:48;;;;;;;5.57;2.70;;;13.40;99.90;;;;;;5024349;28;20530;-36
2022/04/24 10:30:22;;;;;;;6.47;3.00;;;13.50;99.90;;;;;;5042330;28;20041;-36
2022/04/24 10:32:49;;;;;;;12.15;3.35;;;13.50;99.90;;;;;;5043773;28;20048;-36
2022/04/24 10:35:17;;;;;;;6.13;3.00;;;13.60;99.90;;;;;;5044197;28;20048;-36
2022/04/24 10:37:44;;;;;;;7.53;4.28;;;13.60;99.90;;;;;;5027931;28;20061;-36
2022/04/24 10:40:16;;;;;;;11.32;3.67;;;13.60;99.90;;;;;;5044081;28;20056;-36
2022/04/24 10:42:43;;;;;;;8.95;3.70;;;13.60;99.90;;;;;;5041403;28;20068;-36
2022/04/24 10:45:14;;;;;;;5.35;3.10;;;13.70;99.90;;;;;;5042229;28;20090;-36
2022/04/24 10:47:49;;;;;;;6.63;3.40;;;13.70;99.90;;;;;;5026031;28;20326;-36
2022/04/24 10:50:19;;;;;;;8.52;3.55;;;13.70;99.90;;;;;;5043629;28;20381;-36
2022/04/24 10:52:47;;;;;;;8.98;4.00;;;13.70;99.90;;;;;;5043598;28;20076;-36
2022/04/24 10:55:19;;;;;;;10.93;4.30;;;13.70;99.90;;;;;;5043386;28;20049;-36
2022/04/24 10:57:54;;;;;;;10.02;4.18;;;13.70;99.90;;;;;;5027895;28;20111;-36
2022/04/24 11:00:26;;;;;;;9.05;4.15;;;13.60;99.90;;;;;;5044357;28;20519;-36
2022/04/24 11:02:52;;;;;;;9.70;3.92;;;13.60;99.90;;;;;;5040935;28;20037;-36
2022/04/24 11:05:26;;;;;;;8.45;4.10;;;13.60;99.90;;;;;;5043341;28;20035;-36
2022/04/24 11:08:03;;;;;;;8.90;3.97;;;13.60;99.90;;;;;;5027736;28;20126;-36
2022/04/24 11:10:29;;;;;;;7.68;4.18;;;13.70;99.90;;;;;;5043780;28;20079;-36
2022/04/24 11:12:56;;;;;;;9.48;3.83;;;13.70;99.90;;;;;;5039240;28;21801;-36
2022/04/24 11:15:22;;;;;;;10.20;4.30;;;13.70;99.90;;;;;;5043618;28;20041;-36
2022/04/24 11:17:47;;;;;;;10.43;4.35;;;13.70;99.90;;;;;;5028135;28;20041;-36
2022/04/24 11:20:15;;;;;;;9.23;4.68;;;13.80;99.90;;;;;;5048033;28;20056;-36
2022/04/24 11:22:50;;;;;;;7.40;3.97;;;13.70;99.90;;;;;;5046568;28;20067;-37
2022/04/24 11:25:19;;;;;;;7.88;4.80;;;13.80;99.90;;;;;;5047674;28;20519;-36
2022/04/24 11:27:48;;;;;;;9.00;4.80;;;13.80;99.90;;;;;;5031114;28;21179;-36
2022/04/24 11:30:20;;;;;;;9.48;4.82;;;13.80;99.90;;;;;;5047773;28;20124;-36
2022/04/24 11:33:06;;;;;;;9.73;4.90;;;13.80;99.90;;;;;;5045454;28;20099;-36
2022/04/24 11:35:36;;;;;;;10.98;4.97;;;13.80;99.90;;;;;;5047692;28;20052;-36
2022/04/24 11:38:03;;;;;;;8.85;4.90;;;13.70;99.90;;;;;;5046803;28;20053;-36
2022/04/24 11:40:30;;;;;;;8.40;5.05;;;13.70;99.90;;;;;;5046354;28;20040;-36
2022/04/24 11:43:06;;;;;;;9.55;5.05;;;13.70;99.90;;;;;;5046248;28;20409;-36
2022/04/24 11:51:16;;;;;;;9.57;4.70;;;13.80;99.90;;;;;;5047109;28;20143;-36
2022/04/24 11:53:43;;;;;;;10.57;4.75;;;13.80;99.90;;;;;;5046576;28;20037;-36
2022/04/24 11:56:15;;;;;;;9.13;4.63;;;13.80;99.90;;;;;;5041354;28;20090;-37
2022/04/24 11:58:44;;;;;;;8.63;4.40;;;13.90;99.90;;;;;;5039996;28;20044;-36
2022/04/24 12:01:13;;;;;;;8.55;4.90;;;13.90;99.90;;;;;;5048339;28;20396;-36
2022/04/24 12:03:43;;;;;;;9.95;5.03;;;13.80;99.90;;;;;;5042481;28;20040;-36
2022/04/24 12:06:13;;;;;;;8.43;4.85;;;13.90;99.90;;;;;;5040909;28;20504;-37
2022/04/24 12:08:47;;;;;;;7.45;4.50;;;13.90;99.90;;;;;;5035725;28;20053;-36
2022/04/24 12:11:26;;;;;;;8.43;4.50;;;13.90;99.90;;;;;;5046440;28;20059;-37
2022/04/24 12:14:26;;;;;;;8.13;5.10;;;13.90;99.90;;;;;;5044077;28;20049;-36
2022/04/24 12:16:55;;;;;;;9.82;4.40;;;13.90;99.90;;;;;;5029707;28;20504;-36
2022/04/24 12:19:21;;;;;;;8.98;4.72;;;13.90;99.90;;;;;;5044476;28;20060;-36
2022/04/24 12:21:48;;;;;;;10.75;5.10;;;13.90;99.90;;;;;;5045187;28;20060;-36
2022/04/24 12:24:15;;;;;;;7.85;4.95;;;13.90;99.90;;;;;;5045890;28;20063;-36
2022/04/24 12:26:47;;;;;;;6.88;4.57;;;14.00;99.90;;;;;;5032575;28;20681;-36
2022/04/24 12:29:15;;;;;;;8.70;4.95;;;14.00;99.90;;;;;;5045555;28;20140;-36
2022/04/24 12:31:41;;;;;;;8.50;4.47;;;14.10;99.90;;;;;;5042847;28;20084;-36
2022/04/24 12:34:07;;;;;;;6.43;4.70;;;14.10;99.90;;;;;;5044920;28;20072;-36
2022/04/24 12:36:33;;;;;;;8.27;3.92;;;14.20;99.90;;;;;;5032392;28;20566;-37
2022/04/24 12:38:58;;;;;;;10.05;4.55;;;14.20;99.90;;;;;;5044548;28;20075;-36
2022/04/24 12:41:27;;;;;;;7.88;3.67;;;14.30;99.90;;;;;;5046534;28;20037;-36
2022/04/24 12:43:57;;;;;;;8.93;4.00;;;14.40;99.90;;;;;;5045687;28;20120;-36
2022/04/24 12:46:23;;;;;;;8.27;4.50;;;14.40;99.90;;;;;;5033280;28;20040;-37
2022/04/24 12:48:51;;;;;;;6.82;4.00;;;14.50;99.90;;;;;;5041570;28;20095;-36
2022/04/24 12:51:18;;;;;;;8.77;4.05;;;14.50;99.90;;;;;;5044963;28;20088;-36
2022/04/24 12:53:45;;;;;;;6.07;4.07;;;14.40;99.90;;;;;;5042949;28;20061;-36